sensor_id;sensor_type;location;lat;lon;timestamp;P1;durP1;ratioP1;P2;durP2;ratioP2
9712;SDS011;4895;50.926;6.870;2023-06-22T00:01:00;7.07;;;5.10;;
9712;SDS011;4895;50.926;6.870;2023-06-22T00:03:26;10.40;;;4.87;;
9712;SDS011;4895;50.926;6.870;2023-06-22T00:05:51;7.53;;;5.27;;
9712;SDS011;4895;50.926;6.870;2023-06-22T00:08:17;7.33;;;4.47;;
9712;SDS011;4895;50.926;6.870;2023-06-22T00:10:43;6.53;;;4.90;;
9712;SDS011;4895;50.926;6.870;2023-06-22T00:13:09;8.00;;;5.57;;
9712;SDS011;4895;50.926;6.870;2023-06-22T00:15:36;6.33;;;4.73;;
9712;SDS011;4895;50.926;6.870;2023-06-22T00:18:02;8.03;;;5.00;;
9712;SDS011;4895;50.926;6.870;2023-06-22T00:20:28;12.77;;;5.10;;
9712;SDS011;4895;50.926;6.870;2023-06-22T00:22:54;8.23;;;4.80;;
9712;SDS011;4895;50.926;6.870;2023-06-22T00:25:19;6.30;;;4.90;;
9712;SDS011;4895;50.926;6.870;2023-06-22T00:27:45;8.40;;;5.43;;
9712;SDS011;4895;50.926;6.870;2023-06-22T00:30:10;8.33;;;5.20;;
9712;SDS011;4895;50.926;6.870;2023-06-22T00:32:36;7.00;;;4.50;;
9712;SDS011;4895;50.926;6.870;2023-06-22T00:35:01;8.20;;;5.43;;
9712;SDS011;4895;50.926;6.870;2023-06-22T00:37:27;6.80;;;4.73;;
9712;SDS011;4895;50.926;6.870;2023-06-22T00:39:54;6.60;;;5.20;;
9712;SDS011;4895;50.926;6.870;2023-06-22T00:42:20;9.87;;;5.43;;
9712;SDS011;4895;50.926;6.870;2023-06-22T00:44:45;8.13;;;5.07;;
9712;SDS011;4895;50.926;6.870;2023-06-22T00:47:11;6.50;;;5.27;;
9712;SDS011;4895;50.926;6.870;2023-06-22T00:49:38;7.90;;;5.20;;
9712;SDS011;4895;50.926;6.870;2023-06-22T00:52:04;11.33;;;5.43;;
9712;SDS011;4895;50.926;6.870;2023-06-22T00:54:34;7.93;;;5.37;;
9712;SDS011;4895;50.926;6.870;2023-06-22T00:57:02;7.40;;;4.57;;
9712;SDS011;4895;50.926;6.870;2023-06-22T00:59:27;8.20;;;4.97;;
9712;SDS011;4895;50.926;6.870;2023-06-22T01:01:53;7.80;;;5.20;;
9712;SDS011;4895;50.926;6.870;2023-06-22T01:04:18;7.30;;;4.43;;
9712;SDS011;4895;50.926;6.870;2023-06-22T01:09:32;6.67;;;4.83;;
9712;SDS011;4895;50.926;6.870;2023-06-22T01:12:02;7.83;;;4.50;;
9712;SDS011;4895;50.926;6.870;2023-06-22T01:14:37;11.77;;;4.87;;
9712;SDS011;4895;50.926;6.870;2023-06-22T01:17:06;7.50;;;4.43;;
9712;SDS011;4895;50.926;6.870;2023-06-22T01:22:12;10.33;;;4.63;;
9712;SDS011;4895;50.926;6.870;2023-06-22T01:29:46;7.20;;;4.97;;
9712;SDS011;4895;50.926;6.870;2023-06-22T01:32:14;6.67;;;5.07;;
9712;SDS011;4895;50.926;6.870;2023-06-22T01:34:39;7.60;;;4.80;;
9712;SDS011;4895;50.926;6.870;2023-06-22T01:37:05;8.47;;;5.03;;
9712;SDS011;4895;50.926;6.870;2023-06-22T01:39:31;9.10;;;4.87;;
9712;SDS011;4895;50.926;6.870;2023-06-22T01:41:57;8.03;;;5.30;;
9712;SDS011;4895;50.926;6.870;2023-06-22T01:44:22;7.53;;;5.23;;
9712;SDS011;4895;50.926;6.870;2023-06-22T01:46:49;8.93;;;5.40;;
9712;SDS011;4895;50.926;6.870;2023-06-22T01:49:15;9.00;;;5.10;;
9712;SDS011;4895;50.926;6.870;2023-06-22T01:51:40;8.17;;;5.40;;
9712;SDS011;4895;50.926;6.870;2023-06-22T01:54:06;7.70;;;5.43;;
9712;SDS011;4895;50.926;6.870;2023-06-22T01:56:32;13.50;;;5.03;;
9712;SDS011;4895;50.926;6.870;2023-06-22T02:01:34;8.60;;;5.63;;
9712;SDS011;4895;50.926;6.870;2023-06-22T02:04:12;7.40;;;5.10;;
9712;SDS011;4895;50.926;6.870;2023-06-22T02:06:42;9.50;;;4.33;;
9712;SDS011;4895;50.926;6.870;2023-06-22T02:09:15;10.20;;;4.90;;
9712;SDS011;4895;50.926;6.870;2023-06-22T02:11:42;7.90;;;5.03;;
9712;SDS011;4895;50.926;6.870;2023-06-22T02:14:09;9.33;;;4.67;;
9712;SDS011;4895;50.926;6.870;2023-06-22T02:16:35;5.50;;;4.40;;
9712;SDS011;4895;50.926;6.870;2023-06-22T02:19:00;7.20;;;5.20;;
9712;SDS011;4895;50.926;6.870;2023-06-22T02:21:28;6.80;;;5.10;;
9712;SDS011;4895;50.926;6.870;2023-06-22T02:23:53;6.87;;;4.87;;
9712;SDS011;4895;50.926;6.870;2023-06-22T02:26:18;8.40;;;5.00;;
9712;SDS011;4895;50.926;6.870;2023-06-22T02:28:44;8.33;;;4.90;;
9712;SDS011;4895;50.926;6.870;2023-06-22T02:31:10;7.83;;;5.07;;
9712;SDS011;4895;50.926;6.870;2023-06-22T02:33:54;6.00;;;4.43;;
9712;SDS011;4895;50.926;6.870;2023-06-22T02:36:37;8.93;;;4.00;;
9712;SDS011;4895;50.926;6.870;2023-06-22T02:39:03;7.13;;;4.80;;
9712;SDS011;4895;50.926;6.870;2023-06-22T02:41:28;5.47;;;4.50;;
9712;SDS011;4895;50.926;6.870;2023-06-22T02:43:54;6.90;;;4.47;;
9712;SDS011;4895;50.926;6.870;2023-06-22T02:46:19;6.37;;;5.10;;
9712;SDS011;4895;50.926;6.870;2023-06-22T02:48:44;7.20;;;4.83;;
9712;SDS011;4895;50.926;6.870;2023-06-22T02:51:10;7.97;;;5.03;;
9712;SDS011;4895;50.926;6.870;2023-06-22T02:53:35;9.33;;;5.77;;
9712;SDS011;4895;50.926;6.870;2023-06-22T02:56:01;7.50;;;4.73;;
9712;SDS011;4895;50.926;6.870;2023-06-22T02:58:30;8.13;;;4.40;;
9712;SDS011;4895;50.926;6.870;2023-06-22T03:01:14;8.20;;;4.73;;
9712;SDS011;4895;50.926;6.870;2023-06-22T03:03:58;6.93;;;4.90;;
9712;SDS011;4895;50.926;6.870;2023-06-22T03:06:42;6.63;;;4.27;;
9712;SDS011;4895;50.926;6.870;2023-06-22T03:09:29;7.30;;;4.80;;
9712;SDS011;4895;50.926;6.870;2023-06-22T03:12:13;7.77;;;5.10;;
9712;SDS011;4895;50.926;6.870;2023-06-22T03:14:38;8.50;;;4.97;;
9712;SDS011;4895;50.926;6.870;2023-06-22T03:17:04;6.47;;;4.57;;
9712;SDS011;4895;50.926;6.870;2023-06-22T03:19:30;7.63;;;4.73;;
9712;SDS011;4895;50.926;6.870;2023-06-22T03:21:56;6.10;;;4.40;;
9712;SDS011;4895;50.926;6.870;2023-06-22T03:24:22;8.07;;;4.50;;
9712;SDS011;4895;50.926;6.870;2023-06-22T03:26:48;9.70;;;4.83;;
9712;SDS011;4895;50.926;6.870;2023-06-22T03:29:13;9.30;;;5.10;;
9712;SDS011;4895;50.926;6.870;2023-06-22T03:31:38;9.20;;;4.70;;
9712;SDS011;4895;50.926;6.870;2023-06-22T03:34:03;8.10;;;5.23;;
9712;SDS011;4895;50.926;6.870;2023-06-22T03:36:29;9.03;;;5.00;;
9712;SDS011;4895;50.926;6.870;2023-06-22T03:38:55;12.50;;;4.90;;
9712;SDS011;4895;50.926;6.870;2023-06-22T03:41:20;6.80;;;4.70;;
9712;SDS011;4895;50.926;6.870;2023-06-22T03:43:45;7.90;;;4.70;;
9712;SDS011;4895;50.926;6.870;2023-06-22T03:46:11;6.30;;;4.80;;
9712;SDS011;4895;50.926;6.870;2023-06-22T03:48:36;9.70;;;4.93;;
9712;SDS011;4895;50.926;6.870;2023-06-22T03:51:01;7.00;;;4.27;;
9712;SDS011;4895;50.926;6.870;2023-06-22T03:53:27;6.37;;;4.50;;
9712;SDS011;4895;50.926;6.870;2023-06-22T03:55:53;8.97;;;4.90;;
9712;SDS011;4895;50.926;6.870;2023-06-22T03:58:19;7.67;;;4.67;;
9712;SDS011;4895;50.926;6.870;2023-06-22T04:00:47;8.50;;;4.43;;
9712;SDS011;4895;50.926;6.870;2023-06-22T04:03:14;8.20;;;4.37;;
9712;SDS011;4895;50.926;6.870;2023-06-22T04:05:39;7.63;;;4.60;;
9712;SDS011;4895;50.926;6.870;2023-06-22T04:08:05;9.70;;;4.67;;
9712;SDS011;4895;50.926;6.870;2023-06-22T04:10:31;7.23;;;4.67;;
9712;SDS011;4895;50.926;6.870;2023-06-22T04:12:56;6.20;;;4.20;;
9712;SDS011;4895;50.926;6.870;2023-06-22T04:15:21;6.73;;;4.10;;
9712;SDS011;4895;50.926;6.870;2023-06-22T04:17:47;8.20;;;4.13;;
9712;SDS011;4895;50.926;6.870;2023-06-22T04:20:12;7.90;;;4.77;;
9712;SDS011;4895;50.926;6.870;2023-06-22T04:22:37;10.53;;;4.50;;
9712;SDS011;4895;50.926;6.870;2023-06-22T04:25:03;8.80;;;4.70;;
9712;SDS011;4895;50.926;6.870;2023-06-22T04:27:28;12.90;;;4.90;;
9712;SDS011;4895;50.926;6.870;2023-06-22T04:29:53;8.40;;;4.60;;
9712;SDS011;4895;50.926;6.870;2023-06-22T04:32:19;7.93;;;4.67;;
9712;SDS011;4895;50.926;6.870;2023-06-22T04:34:44;7.60;;;4.60;;
9712;SDS011;4895;50.926;6.870;2023-06-22T04:37:09;6.37;;;4.30;;
9712;SDS011;4895;50.926;6.870;2023-06-22T04:39:40;6.10;;;4.93;;
9712;SDS011;4895;50.926;6.870;2023-06-22T04:42:05;6.37;;;4.17;;
9712;SDS011;4895;50.926;6.870;2023-06-22T04:44:31;5.97;;;4.70;;
9712;SDS011;4895;50.926;6.870;2023-06-22T04:46:56;9.73;;;4.93;;
9712;SDS011;4895;50.926;6.870;2023-06-22T04:49:25;9.90;;;5.30;;
9712;SDS011;4895;50.926;6.870;2023-06-22T04:51:57;6.10;;;4.70;;
9712;SDS011;4895;50.926;6.870;2023-06-22T04:54:22;10.60;;;5.23;;
9712;SDS011;4895;50.926;6.870;2023-06-22T04:56:48;9.00;;;5.30;;
9712;SDS011;4895;50.926;6.870;2023-06-22T04:59:21;10.67;;;4.60;;
9712;SDS011;4895;50.926;6.870;2023-06-22T05:01:46;9.53;;;5.37;;
9712;SDS011;4895;50.926;6.870;2023-06-22T05:04:11;11.33;;;4.60;;
9712;SDS011;4895;50.926;6.870;2023-06-22T05:06:37;12.33;;;5.70;;
9712;SDS011;4895;50.926;6.870;2023-06-22T05:09:02;12.70;;;5.80;;
9712;SDS011;4895;50.926;6.870;2023-06-22T05:11:28;7.87;;;5.20;;
9712;SDS011;4895;50.926;6.870;2023-06-22T05:13:53;9.10;;;5.50;;
9712;SDS011;4895;50.926;6.870;2023-06-22T05:16:20;7.50;;;5.17;;
9712;SDS011;4895;50.926;6.870;2023-06-22T05:18:51;10.13;;;5.40;;
9712;SDS011;4895;50.926;6.870;2023-06-22T05:21:18;12.03;;;5.57;;
9712;SDS011;4895;50.926;6.870;2023-06-22T05:23:45;7.83;;;4.83;;
9712;SDS011;4895;50.926;6.870;2023-06-22T05:26:10;8.93;;;5.53;;
9712;SDS011;4895;50.926;6.870;2023-06-22T05:28:35;7.53;;;4.77;;
9712;SDS011;4895;50.926;6.870;2023-06-22T05:31:01;11.20;;;4.93;;
9712;SDS011;4895;50.926;6.870;2023-06-22T05:33:26;7.03;;;5.27;;
9712;SDS011;4895;50.926;6.870;2023-06-22T05:35:51;9.13;;;4.90;;
9712;SDS011;4895;50.926;6.870;2023-06-22T05:38:16;8.10;;;5.27;;
9712;SDS011;4895;50.926;6.870;2023-06-22T05:40:42;12.00;;;5.50;;
9712;SDS011;4895;50.926;6.870;2023-06-22T05:43:07;9.87;;;5.33;;
9712;SDS011;4895;50.926;6.870;2023-06-22T05:45:32;11.87;;;5.90;;
9712;SDS011;4895;50.926;6.870;2023-06-22T05:47:58;11.10;;;5.97;;
9712;SDS011;4895;50.926;6.870;2023-06-22T05:50:23;9.43;;;5.90;;
9712;SDS011;4895;50.926;6.870;2023-06-22T05:52:48;9.20;;;5.57;;
9712;SDS011;4895;50.926;6.870;2023-06-22T05:55:14;11.30;;;5.80;;
9712;SDS011;4895;50.926;6.870;2023-06-22T05:57:40;14.93;;;5.90;;
9712;SDS011;4895;50.926;6.870;2023-06-22T06:00:06;10.80;;;5.77;;
9712;SDS011;4895;50.926;6.870;2023-06-22T06:02:35;10.67;;;5.77;;
9712;SDS011;4895;50.926;6.870;2023-06-22T06:05:00;9.60;;;6.53;;
9712;SDS011;4895;50.926;6.870;2023-06-22T06:07:27;10.27;;;6.40;;
9712;SDS011;4895;50.926;6.870;2023-06-22T06:09:53;11.27;;;6.67;;
9712;SDS011;4895;50.926;6.870;2023-06-22T06:12:18;14.10;;;9.23;;
9712;SDS011;4895;50.926;6.870;2023-06-22T06:14:43;11.20;;;8.47;;
9712;SDS011;4895;50.926;6.870;2023-06-22T06:17:09;13.57;;;8.27;;
9712;SDS011;4895;50.926;6.870;2023-06-22T06:19:34;18.03;;;8.50;;
9712;SDS011;4895;50.926;6.870;2023-06-22T06:21:59;11.87;;;8.37;;
9712;SDS011;4895;50.926;6.870;2023-06-22T06:24:25;16.93;;;9.73;;
9712;SDS011;4895;50.926;6.870;2023-06-22T06:26:50;12.43;;;8.60;;
9712;SDS011;4895;50.926;6.870;2023-06-22T06:29:16;12.47;;;8.97;;
9712;SDS011;4895;50.926;6.870;2023-06-22T06:31:41;11.67;;;9.77;;
9712;SDS011;4895;50.926;6.870;2023-06-22T06:34:06;12.07;;;9.67;;
9712;SDS011;4895;50.926;6.870;2023-06-22T06:36:32;14.17;;;9.70;;
9712;SDS011;4895;50.926;6.870;2023-06-22T06:38:57;15.73;;;9.70;;
9712;SDS011;4895;50.926;6.870;2023-06-22T06:41:22;13.73;;;9.77;;
9712;SDS011;4895;50.926;6.870;2023-06-22T06:43:48;13.57;;;10.63;;
9712;SDS011;4895;50.926;6.870;2023-06-22T06:46:13;16.27;;;10.93;;
9712;SDS011;4895;50.926;6.870;2023-06-22T06:48:38;13.57;;;10.43;;
9712;SDS011;4895;50.926;6.870;2023-06-22T06:51:04;16.63;;;10.17;;
9712;SDS011;4895;50.926;6.870;2023-06-22T06:53:30;17.43;;;10.57;;
9712;SDS011;4895;50.926;6.870;2023-06-22T06:55:56;14.33;;;10.30;;
9712;SDS011;4895;50.926;6.870;2023-06-22T06:58:21;15.10;;;9.90;;
9712;SDS011;4895;50.926;6.870;2023-06-22T07:00:48;16.43;;;10.70;;
9712;SDS011;4895;50.926;6.870;2023-06-22T07:03:13;14.17;;;10.47;;
9712;SDS011;4895;50.926;6.870;2023-06-22T07:05:39;11.90;;;9.37;;
9712;SDS011;4895;50.926;6.870;2023-06-22T07:08:04;13.10;;;10.87;;
9712;SDS011;4895;50.926;6.870;2023-06-22T07:10:29;12.27;;;9.50;;
9712;SDS011;4895;50.926;6.870;2023-06-22T07:12:55;10.93;;;9.23;;
9712;SDS011;4895;50.926;6.870;2023-06-22T07:15:20;12.07;;;10.27;;
9712;SDS011;4895;50.926;6.870;2023-06-22T07:17:45;11.70;;;9.70;;
9712;SDS011;4895;50.926;6.870;2023-06-22T07:20:11;12.40;;;9.10;;
9712;SDS011;4895;50.926;6.870;2023-06-22T07:22:40;12.23;;;9.80;;
9712;SDS011;4895;50.926;6.870;2023-06-22T07:25:07;9.83;;;8.83;;
9712;SDS011;4895;50.926;6.870;2023-06-22T07:27:44;15.77;;;10.60;;
9712;SDS011;4895;50.926;6.870;2023-06-22T07:30:11;14.93;;;9.77;;
9712;SDS011;4895;50.926;6.870;2023-06-22T07:32:36;12.20;;;10.57;;
9712;SDS011;4895;50.926;6.870;2023-06-22T07:35:02;17.47;;;10.77;;
9712;SDS011;4895;50.926;6.870;2023-06-22T07:37:29;15.27;;;10.53;;
9712;SDS011;4895;50.926;6.870;2023-06-22T07:39:55;15.23;;;10.23;;
9712;SDS011;4895;50.926;6.870;2023-06-22T07:42:26;17.20;;;9.80;;
9712;SDS011;4895;50.926;6.870;2023-06-22T07:44:52;14.37;;;10.07;;
9712;SDS011;4895;50.926;6.870;2023-06-22T07:47:17;15.53;;;9.10;;
9712;SDS011;4895;50.926;6.870;2023-06-22T07:49:44;12.60;;;10.20;;
9712;SDS011;4895;50.926;6.870;2023-06-22T07:52:10;14.30;;;10.20;;
9712;SDS011;4895;50.926;6.870;2023-06-22T07:54:35;14.47;;;9.63;;
9712;SDS011;4895;50.926;6.870;2023-06-22T07:57:01;15.57;;;11.00;;
9712;SDS011;4895;50.926;6.870;2023-06-22T07:59:26;19.47;;;9.63;;
9712;SDS011;4895;50.926;6.870;2023-06-22T08:01:51;11.07;;;9.50;;
9712;SDS011;4895;50.926;6.870;2023-06-22T08:04:17;11.90;;;9.30;;
9712;SDS011;4895;50.926;6.870;2023-06-22T08:06:42;16.83;;;9.80;;
9712;SDS011;4895;50.926;6.870;2023-06-22T08:09:08;14.70;;;10.20;;
9712;SDS011;4895;50.926;6.870;2023-06-22T08:11:33;13.03;;;10.20;;
9712;SDS011;4895;50.926;6.870;2023-06-22T08:13:59;11.03;;;9.47;;
9712;SDS011;4895;50.926;6.870;2023-06-22T08:16:24;13.30;;;9.33;;
9712;SDS011;4895;50.926;6.870;2023-06-22T08:18:50;12.10;;;9.10;;
9712;SDS011;4895;50.926;6.870;2023-06-22T08:21:15;13.67;;;10.27;;
9712;SDS011;4895;50.926;6.870;2023-06-22T08:23:40;16.00;;;8.70;;
9712;SDS011;4895;50.926;6.870;2023-06-22T08:26:05;19.00;;;9.60;;
9712;SDS011;4895;50.926;6.870;2023-06-22T08:28:31;10.33;;;8.93;;
9712;SDS011;4895;50.926;6.870;2023-06-22T08:30:56;11.43;;;9.67;;
9712;SDS011;4895;50.926;6.870;2023-06-22T08:33:22;11.03;;;9.30;;
9712;SDS011;4895;50.926;6.870;2023-06-22T08:35:53;12.43;;;9.73;;
9712;SDS011;4895;50.926;6.870;2023-06-22T08:38:22;12.00;;;9.60;;
9712;SDS011;4895;50.926;6.870;2023-06-22T08:40:48;13.40;;;9.77;;
9712;SDS011;4895;50.926;6.870;2023-06-22T08:43:13;13.50;;;8.90;;
9712;SDS011;4895;50.926;6.870;2023-06-22T08:45:39;12.40;;;10.00;;
9712;SDS011;4895;50.926;6.870;2023-06-22T08:48:04;11.23;;;9.80;;
9712;SDS011;4895;50.926;6.870;2023-06-22T08:50:30;12.47;;;9.30;;
9712;SDS011;4895;50.926;6.870;2023-06-22T08:52:55;11.50;;;9.53;;
9712;SDS011;4895;50.926;6.870;2023-06-22T08:57:50;9.70;;;8.13;;
9712;SDS011;4895;50.926;6.870;2023-06-22T09:00:16;10.23;;;8.07;;
9712;SDS011;4895;50.926;6.870;2023-06-22T09:02:43;9.50;;;8.13;;
9712;SDS011;4895;50.926;6.870;2023-06-22T09:05:09;11.20;;;9.10;;
9712;SDS011;4895;50.926;6.870;2023-06-22T09:07:34;10.63;;;8.20;;
9712;SDS011;4895;50.926;6.870;2023-06-22T09:10:00;10.67;;;8.80;;
9712;SDS011;4895;50.926;6.870;2023-06-22T09:12:25;11.87;;;8.80;;
9712;SDS011;4895;50.926;6.870;2023-06-22T09:14:52;10.77;;;8.30;;
9712;SDS011;4895;50.926;6.870;2023-06-22T09:17:18;10.07;;;8.47;;
9712;SDS011;4895;50.926;6.870;2023-06-22T09:19:43;13.87;;;8.67;;
9712;SDS011;4895;50.926;6.870;2023-06-22T09:22:09;10.80;;;8.53;;
9712;SDS011;4895;50.926;6.870;2023-06-22T09:24:34;9.60;;;7.73;;
9712;SDS011;4895;50.926;6.870;2023-06-22T09:26:59;12.50;;;8.40;;
9712;SDS011;4895;50.926;6.870;2023-06-22T09:29:25;12.10;;;8.67;;
9712;SDS011;4895;50.926;6.870;2023-06-22T09:31:50;11.20;;;8.40;;
9712;SDS011;4895;50.926;6.870;2023-06-22T09:34:15;10.07;;;8.40;;
9712;SDS011;4895;50.926;6.870;2023-06-22T09:36:45;10.10;;;8.13;;
9712;SDS011;4895;50.926;6.870;2023-06-22T09:39:10;15.67;;;8.70;;
9712;SDS011;4895;50.926;6.870;2023-06-22T09:41:36;11.90;;;9.27;;
9712;SDS011;4895;50.926;6.870;2023-06-22T09:44:01;13.40;;;7.70;;
9712;SDS011;4895;50.926;6.870;2023-06-22T09:46:26;14.00;;;7.97;;
9712;SDS011;4895;50.926;6.870;2023-06-22T09:48:51;10.33;;;8.00;;
9712;SDS011;4895;50.926;6.870;2023-06-22T09:51:17;11.77;;;7.67;;
9712;SDS011;4895;50.926;6.870;2023-06-22T09:53:43;11.67;;;8.43;;
9712;SDS011;4895;50.926;6.870;2023-06-22T09:56:09;9.20;;;8.17;;
9712;SDS011;4895;50.926;6.870;2023-06-22T09:58:39;10.23;;;8.30;;
9712;SDS011;4895;50.926;6.870;2023-06-22T10:01:05;9.07;;;8.17;;
9712;SDS011;4895;50.926;6.870;2023-06-22T10:03:30;8.53;;;7.63;;
9712;SDS011;4895;50.926;6.870;2023-06-22T10:05:56;10.67;;;8.23;;
9712;SDS011;4895;50.926;6.870;2023-06-22T10:08:21;10.87;;;8.73;;
9712;SDS011;4895;50.926;6.870;2023-06-22T10:10:47;10.70;;;8.07;;
9712;SDS011;4895;50.926;6.870;2023-06-22T10:13:12;10.60;;;8.53;;
9712;SDS011;4895;50.926;6.870;2023-06-22T10:15:38;12.30;;;8.30;;
9712;SDS011;4895;50.926;6.870;2023-06-22T10:18:03;12.50;;;8.17;;
9712;SDS011;4895;50.926;6.870;2023-06-22T10:20:29;11.60;;;9.10;;
9712;SDS011;4895;50.926;6.870;2023-06-22T10:22:54;11.60;;;8.80;;
9712;SDS011;4895;50.926;6.870;2023-06-22T10:25:19;13.17;;;8.93;;
9712;SDS011;4895;50.926;6.870;2023-06-22T10:27:45;12.60;;;9.50;;
9712;SDS011;4895;50.926;6.870;2023-06-22T10:30:11;21.30;;;9.97;;
9712;SDS011;4895;50.926;6.870;2023-06-22T10:32:37;16.37;;;9.97;;
9712;SDS011;4895;50.926;6.870;2023-06-22T10:35:03;13.03;;;9.97;;
9712;SDS011;4895;50.926;6.870;2023-06-22T10:37:29;17.13;;;10.70;;
9712;SDS011;4895;50.926;6.870;2023-06-22T10:39:54;13.03;;;11.03;;
9712;SDS011;4895;50.926;6.870;2023-06-22T10:42:19;14.20;;;11.37;;
9712;SDS011;4895;50.926;6.870;2023-06-22T10:44:45;17.03;;;12.43;;
9712;SDS011;4895;50.926;6.870;2023-06-22T10:47:10;15.67;;;11.77;;
9712;SDS011;4895;50.926;6.870;2023-06-22T10:49:38;15.47;;;11.40;;
9712;SDS011;4895;50.926;6.870;2023-06-22T10:52:05;17.20;;;12.27;;
9712;SDS011;4895;50.926;6.870;2023-06-22T10:54:32;17.60;;;12.80;;
9712;SDS011;4895;50.926;6.870;2023-06-22T10:56:58;18.60;;;12.73;;
9712;SDS011;4895;50.926;6.870;2023-06-22T10:59:24;22.50;;;14.37;;
9712;SDS011;4895;50.926;6.870;2023-06-22T11:01:50;20.90;;;14.10;;
9712;SDS011;4895;50.926;6.870;2023-06-22T11:04:16;26.50;;;15.73;;
9712;SDS011;4895;50.926;6.870;2023-06-22T11:06:42;21.00;;;15.10;;
9712;SDS011;4895;50.926;6.870;2023-06-22T11:09:07;22.93;;;14.57;;
9712;SDS011;4895;50.926;6.870;2023-06-22T11:11:33;20.23;;;15.57;;
9712;SDS011;4895;50.926;6.870;2023-06-22T11:13:58;22.60;;;16.20;;
9712;SDS011;4895;50.926;6.870;2023-06-22T11:16:23;21.80;;;14.53;;
9712;SDS011;4895;50.926;6.870;2023-06-22T11:18:48;23.47;;;16.20;;
9712;SDS011;4895;50.926;6.870;2023-06-22T11:21:14;23.97;;;16.80;;
9712;SDS011;4895;50.926;6.870;2023-06-22T11:23:39;24.00;;;15.83;;
9712;SDS011;4895;50.926;6.870;2023-06-22T11:26:06;20.10;;;15.60;;
9712;SDS011;4895;50.926;6.870;2023-06-22T11:28:32;23.93;;;16.03;;
9712;SDS011;4895;50.926;6.870;2023-06-22T11:30:57;21.43;;;15.90;;
9712;SDS011;4895;50.926;6.870;2023-06-22T11:33:22;30.50;;;17.33;;
9712;SDS011;4895;50.926;6.870;2023-06-22T11:35:47;29.80;;;17.90;;
9712;SDS011;4895;50.926;6.870;2023-06-22T11:38:13;23.30;;;15.93;;
9712;SDS011;4895;50.926;6.870;2023-06-22T11:40:38;21.40;;;15.97;;
9712;SDS011;4895;50.926;6.870;2023-06-22T11:43:03;22.20;;;16.33;;
9712;SDS011;4895;50.926;6.870;2023-06-22T11:45:29;22.87;;;16.50;;
9712;SDS011;4895;50.926;6.870;2023-06-22T11:47:54;20.20;;;15.87;;
9712;SDS011;4895;50.926;6.870;2023-06-22T11:50:19;23.90;;;15.90;;
9712;SDS011;4895;50.926;6.870;2023-06-22T11:52:45;23.07;;;17.10;;
9712;SDS011;4895;50.926;6.870;2023-06-22T11:55:10;23.97;;;16.77;;
9712;SDS011;4895;50.926;6.870;2023-06-22T11:57:36;20.60;;;16.90;;
9712;SDS011;4895;50.926;6.870;2023-06-22T12:00:03;26.20;;;17.87;;
9712;SDS011;4895;50.926;6.870;2023-06-22T12:02:31;22.67;;;16.77;;
9712;SDS011;4895;50.926;6.870;2023-06-22T12:04:57;20.00;;;16.50;;
9712;SDS011;4895;50.926;6.870;2023-06-22T12:07:23;19.47;;;15.23;;
9712;SDS011;4895;50.926;6.870;2023-06-22T12:09:48;21.00;;;16.37;;
9712;SDS011;4895;50.926;6.870;2023-06-22T12:12:13;23.60;;;15.30;;
9712;SDS011;4895;50.926;6.870;2023-06-22T12:14:39;18.77;;;15.20;;
9712;SDS011;4895;50.926;6.870;2023-06-22T12:17:04;22.00;;;16.70;;
9712;SDS011;4895;50.926;6.870;2023-06-22T12:19:29;21.67;;;15.87;;
9712;SDS011;4895;50.926;6.870;2023-06-22T12:21:55;19.03;;;16.13;;
9712;SDS011;4895;50.926;6.870;2023-06-22T12:24:20;18.97;;;15.10;;
9712;SDS011;4895;50.926;6.870;2023-06-22T12:26:45;24.37;;;17.03;;
9712;SDS011;4895;50.926;6.870;2023-06-22T12:29:10;22.00;;;18.43;;
9712;SDS011;4895;50.926;6.870;2023-06-22T12:31:36;24.47;;;18.50;;
9712;SDS011;4895;50.926;6.870;2023-06-22T12:34:03;23.07;;;17.93;;
9712;SDS011;4895;50.926;6.870;2023-06-22T12:36:29;22.90;;;18.13;;
9712;SDS011;4895;50.926;6.870;2023-06-22T12:38:54;20.37;;;16.50;;
9712;SDS011;4895;50.926;6.870;2023-06-22T12:41:20;26.50;;;16.87;;
9712;SDS011;4895;50.926;6.870;2023-06-22T12:43:46;19.70;;;16.47;;
9712;SDS011;4895;50.926;6.870;2023-06-22T12:46:11;21.07;;;16.00;;
9712;SDS011;4895;50.926;6.870;2023-06-22T12:48:36;19.27;;;15.57;;
9712;SDS011;4895;50.926;6.870;2023-06-22T12:51:06;18.20;;;16.20;;
9712;SDS011;4895;50.926;6.870;2023-06-22T12:53:32;23.30;;;18.60;;
9712;SDS011;4895;50.926;6.870;2023-06-22T12:55:57;20.57;;;16.30;;
9712;SDS011;4895;50.926;6.870;2023-06-22T12:58:23;21.03;;;14.83;;
9712;SDS011;4895;50.926;6.870;2023-06-22T13:00:48;19.00;;;14.10;;
9712;SDS011;4895;50.926;6.870;2023-06-22T13:03:14;19.27;;;14.20;;
9712;SDS011;4895;50.926;6.870;2023-06-22T13:05:39;15.63;;;12.90;;
9712;SDS011;4895;50.926;6.870;2023-06-22T13:08:04;17.03;;;13.67;;
9712;SDS011;4895;50.926;6.870;2023-06-22T13:10:30;18.57;;;14.30;;
9712;SDS011;4895;50.926;6.870;2023-06-22T13:12:55;15.60;;;11.43;;
9712;SDS011;4895;50.926;6.870;2023-06-22T13:15:25;14.80;;;12.00;;
9712;SDS011;4895;50.926;6.870;2023-06-22T13:17:51;15.13;;;11.40;;
9712;SDS011;4895;50.926;6.870;2023-06-22T13:20:17;13.73;;;11.60;;
9712;SDS011;4895;50.926;6.870;2023-06-22T13:22:42;15.50;;;12.07;;
9712;SDS011;4895;50.926;6.870;2023-06-22T13:25:09;15.40;;;12.30;;
9712;SDS011;4895;50.926;6.870;2023-06-22T13:27:37;13.27;;;11.53;;
9712;SDS011;4895;50.926;6.870;2023-06-22T13:30:05;16.27;;;13.53;;
9712;SDS011;4895;50.926;6.870;2023-06-22T13:32:31;20.70;;;13.00;;
9712;SDS011;4895;50.926;6.870;2023-06-22T13:34:57;13.07;;;11.67;;
9712;SDS011;4895;50.926;6.870;2023-06-22T13:37:22;13.33;;;11.23;;
9712;SDS011;4895;50.926;6.870;2023-06-22T13:39:47;17.30;;;10.80;;
9712;SDS011;4895;50.926;6.870;2023-06-22T13:42:13;13.90;;;10.63;;
9712;SDS011;4895;50.926;6.870;2023-06-22T13:44:38;11.00;;;9.20;;
9712;SDS011;4895;50.926;6.870;2023-06-22T13:47:03;10.90;;;8.83;;
9712;SDS011;4895;50.926;6.870;2023-06-22T13:49:30;11.80;;;9.00;;
9712;SDS011;4895;50.926;6.870;2023-06-22T13:51:55;12.20;;;9.00;;
9712;SDS011;4895;50.926;6.870;2023-06-22T13:54:20;10.37;;;8.43;;
9712;SDS011;4895;50.926;6.870;2023-06-22T13:56:46;9.97;;;8.23;;
9712;SDS011;4895;50.926;6.870;2023-06-22T13:59:11;8.60;;;7.50;;
9712;SDS011;4895;50.926;6.870;2023-06-22T14:01:37;9.17;;;8.07;;
9712;SDS011;4895;50.926;6.870;2023-06-22T14:04:04;10.40;;;7.77;;
9712;SDS011;4895;50.926;6.870;2023-06-22T14:06:30;10.47;;;7.63;;
9712;SDS011;4895;50.926;6.870;2023-06-22T14:08:55;10.40;;;7.23;;
9712;SDS011;4895;50.926;6.870;2023-06-22T14:11:21;8.00;;;6.40;;
9712;SDS011;4895;50.926;6.870;2023-06-22T14:13:46;9.70;;;7.40;;
9712;SDS011;4895;50.926;6.870;2023-06-22T14:16:11;7.23;;;6.53;;
9712;SDS011;4895;50.926;6.870;2023-06-22T14:18:37;7.60;;;6.43;;
9712;SDS011;4895;50.926;6.870;2023-06-22T14:21:02;6.70;;;5.80;;
9712;SDS011;4895;50.926;6.870;2023-06-22T14:23:27;8.47;;;6.57;;
9712;SDS011;4895;50.926;6.870;2023-06-22T14:25:53;6.77;;;5.37;;
9712;SDS011;4895;50.926;6.870;2023-06-22T14:28:18;7.00;;;5.73;;
9712;SDS011;4895;50.926;6.870;2023-06-22T14:30:43;7.10;;;5.70;;
9712;SDS011;4895;50.926;6.870;2023-06-22T14:33:09;7.40;;;5.43;;
9712;SDS011;4895;50.926;6.870;2023-06-22T14:35:34;5.90;;;5.30;;
9712;SDS011;4895;50.926;6.870;2023-06-22T14:37:59;7.50;;;6.60;;
9712;SDS011;4895;50.926;6.870;2023-06-22T14:40:24;7.90;;;7.10;;
9712;SDS011;4895;50.926;6.870;2023-06-22T14:42:50;9.33;;;7.57;;
9712;SDS011;4895;50.926;6.870;2023-06-22T14:45:15;8.40;;;7.07;;
9712;SDS011;4895;50.926;6.870;2023-06-22T14:47:43;8.27;;;7.43;;
9712;SDS011;4895;50.926;6.870;2023-06-22T14:50:08;10.50;;;8.27;;
9712;SDS011;4895;50.926;6.870;2023-06-22T14:52:34;10.27;;;7.57;;
9712;SDS011;4895;50.926;6.870;2023-06-22T14:54:59;10.00;;;7.90;;
9712;SDS011;4895;50.926;6.870;2023-06-22T14:57:24;11.93;;;8.50;;
9712;SDS011;4895;50.926;6.870;2023-06-22T14:59:50;10.00;;;8.60;;
9712;SDS011;4895;50.926;6.870;2023-06-22T15:02:15;9.10;;;7.40;;
9712;SDS011;4895;50.926;6.870;2023-06-22T15:04:41;10.20;;;7.90;;
9712;SDS011;4895;50.926;6.870;2023-06-22T15:07:06;12.83;;;7.43;;
9712;SDS011;4895;50.926;6.870;2023-06-22T15:09:32;8.33;;;7.40;;
9712;SDS011;4895;50.926;6.870;2023-06-22T15:11:58;8.27;;;6.50;;